Time;durP1;ratioP1;P1;durP2;ratioP2;P2;SDS_P1;SDS_P2;PMS_P1;PMS_P2;Temp;Humidity;BMP_temperature;BMP_pressure;BME280_temperature;BME280_humidity;BME280_pressure;Samples;Min_cycle;Max_cycle;Signal;HPM_P1;HPM_P2
2022/06/21 00:01:24;;;;;;;8.90;2.40;;;;;;;13.36;92.57;97370.52;105479;1284;22547;-87
2022/06/21 00:03:54;;;;;;;4.60;2.40;;;;;;;13.32;92.54;97374.45;105550;1284;22634;-84
2022/06/21 00:06:27;;;;;;;10.00;2.70;;;;;;;13.30;92.73;97378.26;108671;1284;22584;-84
2022/06/21 00:08:55;;;;;;;9.20;3.30;;;;;;;13.27;92.28;97392.35;106038;1284;22576;-86
2022/06/21 00:11:30;;;;;;;5.90;2.70;;;;;;;13.21;92.61;97401.04;105601;1284;23295;-87
2022/06/21 00:13:58;;;;;;;5.20;2.90;;;;;;;13.16;92.32;97408.23;105384;1284;22593;-87
2022/06/21 00:16:29;;;;;;;5.30;2.50;;;;;;;13.12;92.43;97416.82;105290;1284;23941;-86
2022/06/21 00:18:58;;;;;;;3.50;2.40;;;;;;;13.09;92.36;97417.60;105253;1284;25485;-85
2022/06/21 00:21:31;;;;;;;4.40;2.60;;;;;;;13.08;92.54;97417.80;105326;1284;22673;-85
2022/06/21 00:23:59;;;;;;;6.40;2.30;;;;;;;13.04;92.05;97407.98;105325;1284;24223;-87
2022/06/21 00:26:29;;;;;;;5.40;2.80;;;;;;;13.00;92.30;97412.63;105242;1285;24433;-87
2022/06/21 00:28:58;;;;;;;3.60;2.30;;;;;;;12.98;91.39;97418.80;105395;1284;24430;-87
2022/06/21 00:31:30;;;;;;;5.60;2.50;;;;;;;12.92;91.36;97420.89;105422;1284;22563;-86
2022/06/21 00:34:17;;;;;;;3.70;2.70;;;;;;;12.89;91.29;97421.62;105496;1283;22654;-87
2022/06/21 00:36:47;;;;;;;4.20;2.50;;;;;;;12.87;90.86;97420.66;105217;1285;22637;-87
2022/06/21 00:39:18;;;;;;;4.80;3.00;;;;;;;12.84;90.57;97422.88;105464;1284;24310;-88
2022/06/21 00:42:00;;;;;;;2.40;2.20;;;;;;;12.79;90.65;97421.82;105477;1284;22606;-86
2022/06/21 00:44:46;;;;;;;3.00;2.80;;;;;;;12.76;90.79;97420.23;105492;1284;22609;-86
2022/06/21 00:47:17;;;;;;;3.80;2.90;;;;;;;12.75;90.71;97427.98;105512;1284;24225;-85
2022/06/21 00:50:01;;;;;;;3.70;2.90;;;;;;;12.68;90.46;97426.55;105526;1284;25296;-88
2022/06/21 00:52:48;;;;;;;6.30;3.20;;;;;;;12.68;91.04;97421.39;105639;1284;22603;-90
2022/06/21 00:58:03;;;;;;;4.80;3.10;;;;;;;13.04;91.87;97421.27;105450;1285;24383;-85
2022/06/21 01:00:39;;;;;;;4.40;3.30;;;;;;;13.06;91.38;97419.40;105400;1285;25499;-84
2022/06/21 01:03:18;;;;;;;3.30;3.00;;;;;;;13.02;91.94;97416.09;105333;1285;22542;-87
2022/06/21 01:05:47;;;;;;;4.50;3.30;;;;;;;12.98;91.77;97417.63;105205;1287;23426;-89
2022/06/21 01:08:21;;;;;;;5.30;4.40;;;;;;;12.97;92.12;97424.54;104984;1286;24233;-85
2022/06/21 01:10:56;;;;;;;5.00;3.70;;;;;;;12.90;91.33;97425.08;105141;1288;22592;-84
2022/06/21 01:13:29;;;;;;;5.60;4.10;;;;;;;12.87;91.36;97422.61;106543;1287;22574;-83
2022/06/21 01:15:57;;;;;;;6.20;4.20;;;;;;;12.83;91.32;97423.02;106711;1287;22720;-83
2022/06/21 01:18:27;;;;;;;5.70;3.80;;;;;;;12.85;91.55;97416.96;105232;1288;25385;-86
2022/06/21 01:20:58;;;;;;;5.20;3.80;;;;;;;12.83;91.79;97413.65;105097;1287;22643;-84
2022/06/21 01:23:35;;;;;;;4.20;3.80;;;;;;;12.82;91.80;97415.13;105178;1287;22588;-89
2022/06/21 01:26:24;;;;;;;5.00;4.00;;;;;;;12.85;91.96;97409.25;105087;1287;23490;-90
2022/06/21 01:28:53;;;;;;;4.10;3.60;;;;;;;12.99;91.93;97413.20;105208;1288;22719;-89
2022/06/21 01:31:21;;;;;;;4.90;3.50;;;;;;;13.04;91.07;97409.77;105033;1287;22566;-89
2022/06/21 01:33:49;;;;;;;5.00;3.40;;;;;;;13.05;90.91;97410.27;105241;1285;22642;-88
2022/06/21 01:36:28;;;;;;;4.80;3.90;;;;;;;13.12;91.06;97409.15;105257;1285;24217;-90
2022/06/21 01:39:03;;;;;;;4.50;3.40;;;;;;;13.17;90.84;97412.08;105296;1285;25064;-89
2022/06/21 01:41:38;;;;;;;4.00;3.50;;;;;;;13.15;91.04;97412.53;105090;1285;25252;-90
2022/06/21 01:44:13;;;;;;;4.00;3.50;;;;;;;13.14;90.38;97417.20;105285;1285;22547;-85
2022/06/21 01:46:43;;;;;;;4.50;3.70;;;;;;;13.04;89.90;97412.19;105198;1285;22569;-86
2022/06/21 01:49:19;;;;;;;6.70;3.60;;;;;;;12.97;89.15;97415.20;104978;1285;22630;-86
2022/06/21 01:51:51;;;;;;;5.40;3.50;;;;;;;12.87;89.25;97420.23;104905;1287;22716;-85
2022/06/21 01:54:23;;;;;;;3.80;3.40;;;;;;;12.82;89.54;97420.15;104799;1285;229661;-86
2022/06/21 01:56:52;;;;;;;4.50;3.70;;;;;;;12.76;89.49;97422.02;105203;1285;22801;-86
2022/06/21 01:59:26;;;;;;;4.10;3.70;;;;;;;12.70;89.27;97427.19;105216;1285;22987;-85
2022/06/21 02:02:04;;;;;;;6.30;3.90;;;;;;;12.61;89.07;97426.52;105180;1285;22567;-86
2022/06/21 02:04:39;;;;;;;6.30;4.10;;;;;;;12.57;89.45;97426.02;105110;1287;22680;-86
2022/06/21 02:07:12;;;;;;;5.90;3.50;;;;;;;12.55;89.58;97424.47;105048;1287;22572;-85
2022/06/21 02:09:46;;;;;;;4.90;3.90;;;;;;;12.54;89.77;97428.62;105090;1287;22607;-83
2022/06/21 02:12:14;;;;;;;;;;;;;;;12.52;89.14;97426.84;105294;1284;22749;-84
2022/06/21 02:14:53;;;;;;;6.10;4.50;;;;;;;12.46;88.55;97425.17;105306;1285;25400;-84
2022/06/21 02:17:31;;;;;;;5.60;4.20;;;;;;;12.42;88.33;97435.84;105370;1285;24401;-86
2022/06/21 02:20:45;;;;;;;4.90;3.50;;;;;;;12.40;88.26;97435.64;105180;1285;22593;-84
2022/06/21 02:23:15;;;;;;;4.40;3.70;;;;;;;12.39;88.94;97441.11;104323;1294;22566;-83
2022/06/21 02:25:44;;;;;;;4.20;3.30;;;;;;;12.40;89.13;97443.45;105056;1294;22654;-84
2022/06/21 02:28:15;;;;;;;7.00;4.30;;;;;;;12.40;89.11;97443.84;104526;1294;22716;-85
2022/06/21 02:30:44;;;;;;;4.00;3.60;;;;;;;12.37;89.04;97443.63;104484;1292;23353;-83
2022/06/21 02:33:17;;;;;;;4.10;3.70;;;;;;;12.34;89.12;97442.81;103998;1294;24502;-82
2022/06/21 02:35:58;;;;;;;6.40;4.40;;;;;;;12.31;88.89;97441.83;104311;1293;22588;-84
2022/06/21 02:38:41;;;;;;;7.40;4.20;;;;;;;12.29;88.81;97439.67;104216;1294;22581;-84
2022/06/21 02:41:20;;;;;;;7.20;4.20;;;;;;;12.27;89.25;97439.07;104425;1294;22643;-84
2022/06/21 02:43:56;;;;;;;5.10;4.60;;;;;;;12.24;89.06;97437.98;104387;1294;23963;-83
2022/06/21 02:46:29;;;;;;;5.90;4.10;;;;;;;12.21;88.87;97445.44;104438;1293;25981;-84
2022/06/21 02:49:05;;;;;;;5.00;4.30;;;;;;;12.15;89.02;97440.10;104281;1294;22635;-84
2022/06/21 02:51:42;;;;;;;6.60;4.30;;;;;;;12.15;89.27;97442.63;104346;1294;25774;-84
2022/06/21 02:54:23;;;;;;;6.80;4.20;;;;;;;12.12;89.29;97443.35;104282;1294;22666;-84
2022/06/21 02:57:01;;;;;;;6.60;4.60;;;;;;;12.12;89.35;97439.70;104458;1291;22554;-84
2022/06/21 02:59:33;;;;;;;5.50;4.30;;;;;;;12.10;89.46;97442.77;104534;1291;24230;-85
2022/06/21 03:02:07;;;;;;;8.60;4.70;;;;;;;12.10;89.90;97441.16;105293;1285;24545;-84
2022/06/21 03:04:43;;;;;;;8.20;5.90;;;;;;;12.05;89.64;97440.82;105281;1285;24286;-84
2022/06/21 03:07:20;;;;;;;6.10;5.10;;;;;;;12.04;89.84;97445.87;105167;1283;22592;-84
2022/06/21 03:09:48;;;;;;;6.40;4.90;;;;;;;12.03;89.58;97446.73;105034;1287;25425;-85
2022/06/21 03:12:21;;;;;;;5.60;4.90;;;;;;;12.01;89.74;97449.64;105189;1284;22558;-84
2022/06/21 03:14:57;;;;;;;6.00;5.00;;;;;;;11.99;89.90;97447.73;105250;1285;22562;-84
2022/06/21 03:17:38;;;;;;;6.70;4.80;;;;;;;11.98;90.09;97460.27;105016;1287;24300;-84
2022/06/21 03:20:13;;;;;;;8.90;5.10;;;;;;;11.98;90.42;97468.20;105250;1285;24462;-84
2022/06/21 03:22:42;;;;;;;7.70;4.80;;;;;;;11.96;90.46;97465.73;105290;1285;22748;-83
2022/06/21 03:25:49;;;;;;;6.30;5.60;;;;;;;11.97;90.54;97468.08;105270;1285;23932;-83
2022/06/21 03:28:34;;;;;;;8.00;7.20;;;;;;;11.97;90.73;97471.80;104317;1294;24314;-83
2022/06/21 03:31:19;;;;;;;10.30;8.50;;;;;;;11.94;90.56;97460.91;104787;1294;22628;-82
2022/06/21 03:33:54;;;;;;;10.50;9.20;;;;;;;11.87;90.52;97459.52;105502;1294;22856;-83
2022/06/21 03:36:25;;;;;;;10.40;8.40;;;;;;;11.83;90.95;97456.77;104932;1293;22672;-83
2022/06/21 03:38:59;;;;;;;10.40;9.20;;;;;;;11.80;90.88;97453.02;104569;1294;22571;-83
2022/06/21 03:41:43;;;;;;;10.10;9.00;;;;;;;11.80;90.83;97445.63;104367;1294;22783;-84
2022/06/21 03:44:32;;;;;;;13.20;11.40;;;;;;;11.82;91.41;97441.88;104354;1294;26618;-85
2022/06/21 03:47:06;;;;;;;12.20;10.90;;;;;;;11.86;91.72;97437.59;104303;1294;22713;-85
2022/06/21 03:49:59;;;;;;;11.70;10.10;;;;;;;11.88;91.24;97441.04;104322;1293;24396;-85
2022/06/21 03:52:42;;;;;;;10.90;9.70;;;;;;;11.91;91.69;97440.10;104085;1294;22666;-84
2022/06/21 03:55:36;;;;;;;16.20;12.20;;;;;;;11.93;91.56;97446.13;104263;1294;24338;-85
2022/06/21 03:58:16;;;;;;;14.90;11.40;;;;;;;11.96;91.49;97442.63;104328;1293;22950;-83
2022/06/21 04:00:54;;;;;;;18.20;11.70;;;;;;;12.02;91.59;97443.45;104342;1294;23470;-84
2022/06/21 04:03:25;;;;;;;17.30;10.20;;;;;;;12.07;92.04;97439.19;104949;1285;22556;-84
2022/06/21 04:06:04;;;;;;;17.60;8.90;;;;;;;12.09;91.96;97443.80;104907;1285;22816;-84
2022/06/21 04:08:40;;;;;;;21.50;11.90;;;;;;;12.11;92.16;97447.93;105176;1285;22554;-84
2022/06/21 04:11:23;;;;;;;24.70;11.30;;;;;;;12.08;91.77;97454.60;105272;1285;22556;-84
2022/06/21 04:14:13;;;;;;;21.60;11.90;;;;;;;12.09;91.83;97457.27;105177;1284;22656;-85
2022/06/21 04:17:13;;;;;;;13.40;9.70;;;;;;;12.05;91.89;97455.70;105187;1285;22653;-84
2022/06/21 04:19:55;;;;;;;18.50;11.30;;;;;;;12.05;92.32;97455.17;105215;1285;22578;-85
2022/06/21 04:22:30;;;;;;;14.30;9.60;;;;;;;12.09;92.62;97452.41;105203;1285;23314;-85
2022/06/21 04:25:21;;;;;;;12.60;8.90;;;;;;;12.09;92.49;97454.16;105232;1285;24305;-84
2022/06/21 04:28:09;;;;;;;16.40;10.60;;;;;;;12.09;92.39;97452.25;105165;1285;22681;-85
2022/06/21 04:30:59;;;;;;;9.80;8.30;;;;;;;12.12;92.35;97453.89;105198;1285;22580;-84
2022/06/21 04:33:40;;;;;;;9.60;7.20;;;;;;;12.07;92.22;97450.82;105243;1285;22724;-83
2022/06/21 04:36:19;;;;;;;19.10;11.80;;;;;;;12.07;91.93;97446.27;105190;1285;25367;-84
2022/06/21 04:38:57;;;;;;;10.50;8.50;;;;;;;12.09;91.65;97446.59;105254;1284;25365;-84
2022/06/21 04:41:54;;;;;;;15.20;9.80;;;;;;;12.09;91.10;97451.33;106297;1285;24246;-83
2022/06/21 04:44:46;;;;;;;13.50;8.80;;;;;;;12.15;90.78;97452.18;106729;1285;24221;-83
2022/06/21 04:47:23;;;;;;;14.60;9.70;;;;;;;12.25;90.72;97447.85;104822;1285;25659;-85
2022/06/21 04:49:58;;;;;;;9.40;7.30;;;;;;;12.27;89.75;97452.48;105245;1285;22572;-83
2022/06/21 04:52:39;;;;;;;12.50;9.00;;;;;;;12.33;89.50;97453.34;105221;1285;22575;-83
2022/06/21 04:55:16;;;;;;;9.10;7.20;;;;;;;12.37;89.41;97455.54;105182;1285;22636;-82
2022/06/21 04:57:47;;;;;;;12.30;7.80;;;;;;;12.44;89.42;97452.42;105217;1285;23991;-84
2022/06/21 05:00:18;;;;;;;7.70;6.70;;;;;;;12.52;88.98;97456.53;105207;1285;25544;-83
2022/06/21 05:02:54;;;;;;;9.40;7.00;;;;;;;12.52;88.35;97467.05;104931;1285;22588;-82
2022/06/21 05:05:29;;;;;;;8.30;6.30;;;;;;;12.55;88.21;97468.79;105348;1285;22563;-83
2022/06/21 05:08:07;;;;;;;9.50;6.90;;;;;;;12.57;88.01;97468.34;105268;1285;22572;-82
2022/06/21 05:10:40;;;;;;;9.90;7.20;;;;;;;12.64;87.30;97464.32;105250;1285;22882;-82
2022/06/21 05:13:24;;;;;;;10.50;6.90;;;;;;;12.65;86.76;97466.97;105295;1285;22566;-83
2022/06/21 05:15:55;;;;;;;10.80;6.40;;;;;;;12.66;86.37;97474.11;105283;1285;22704;-84
2022/06/21 05:18:31;;;;;;;12.40;7.20;;;;;;;12.65;86.03;97480.34;105420;1285;22569;-84
2022/06/21 05:21:07;;;;;;;11.90;6.70;;;;;;;12.65;85.38;97482.03;105243;1285;25424;-84
2022/06/21 05:23:35;;;;;;;9.50;6.10;;;;;;;12.65;85.96;97486.35;105248;1285;22633;-83
2022/06/21 05:26:13;;;;;;;10.80;6.50;;;;;;;12.64;85.27;97487.78;105176;1285;25372;-84
2022/06/21 05:28:58;;;;;;;9.80;5.90;;;;;;;12.61;85.08;97483.29;105227;1285;22629;-84
2022/06/21 05:31:31;;;;;;;11.00;7.00;;;;;;;12.62;85.04;97479.05;105219;1285;22713;-84
2022/06/21 05:34:06;;;;;;;13.30;6.60;;;;;;;12.63;85.10;97474.09;105190;1285;22550;-83
2022/06/21 05:36:41;;;;;;;7.60;6.50;;;;;;;12.73;84.97;97477.27;105228;1285;22558;-85
2022/06/21 05:39:20;;;;;;;13.10;6.00;;;;;;;12.82;84.47;97482.11;105210;1285;22910;-85
2022/06/21 05:41:52;;;;;;;11.00;6.00;;;;;;;12.87;83.39;97482.31;105270;1285;22584;-85
2022/06/21 05:44:36;;;;;;;9.80;7.40;;;;;;;12.95;82.74;97479.92;105292;1285;23963;-84
2022/06/21 05:47:16;;;;;;;8.00;5.90;;;;;;;13.04;81.89;97482.69;104914;1286;22673;-83
2022/06/21 05:49:45;;;;;;;8.30;5.20;;;;;;;13.16;82.10;97486.77;105289;1285;25488;-84
2022/06/21 05:52:36;;;;;;;7.10;5.60;;;;;;;13.32;81.03;97492.05;108017;1287;22564;-83
2022/06/21 05:55:27;;;;;;;9.60;5.70;;;;;;;13.44;79.83;97488.89;106189;1285;22584;-87
2022/06/21 05:58:16;;;;;;;6.60;5.00;;;;;;;13.56;79.51;97488.44;105553;1284;22577;-86
2022/06/21 06:00:47;;;;;;;12.80;5.90;;;;;;;13.68;78.71;97488.80;105664;1284;22877;-85
2022/06/21 06:03:22;;;;;;;9.00;5.40;;;;;;;13.68;77.21;97492.59;105451;1284;25512;-84
2022/06/21 06:05:54;;;;;;;10.00;6.00;;;;;;;13.66;76.86;97488.10;105360;1284;22565;-85
2022/06/21 06:08:33;;;;;;;12.80;5.30;;;;;;;13.62;76.86;97491.75;105009;1285;24223;-84
2022/06/21 06:11:05;;;;;;;7.60;4.90;;;;;;;13.60;76.47;97490.37;105343;1285;22575;-84
2022/06/21 06:13:39;;;;;;;10.70;5.00;;;;;;;13.60;75.45;97490.66;105245;1285;23276;-85
2022/06/21 06:16:34;;;;;;;8.40;4.70;;;;;;;13.54;73.88;97495.94;105672;1284;24283;-86
2022/06/21 06:19:26;;;;;;;7.20;4.20;;;;;;;13.62;73.18;97490.67;105373;1285;24368;-83
2022/06/21 06:22:06;;;;;;;7.90;4.90;;;;;;;13.65;71.76;97500.21;105104;1285;25415;-85
2022/06/21 06:24:41;;;;;;;10.30;5.00;;;;;;;13.56;71.67;97507.14;105213;1285;22600;-85
2022/06/21 06:27:48;;;;;;;9.00;5.10;;;;;;;13.46;72.54;97499.63;105183;1285;23405;-85
2022/06/21 06:30:35;;;;;;;9.10;4.30;;;;;;;13.42;72.87;97505.91;105110;1285;24408;-85
2022/06/21 06:33:12;;;;;;;8.60;4.20;;;;;;;13.48;70.89;97499.23;105326;1285;25369;-84
2022/06/21 06:35:41;;;;;;;11.20;4.50;;;;;;;13.53;70.04;97503.62;105370;1285;24245;-84
2022/06/21 06:38:14;;;;;;;10.60;3.90;;;;;;;13.64;70.65;97501.73;105362;1286;23326;-84
2022/06/21 06:40:49;;;;;;;7.40;3.70;;;;;;;13.82;69.27;97510.00;105367;1284;24223;-84
2022/06/21 06:43:31;;;;;;;4.80;3.40;;;;;;;13.99;67.74;97504.22;105359;1284;25333;-82
2022/06/21 06:45:59;;;;;;;5.80;3.40;;;;;;;14.04;66.77;97513.91;105420;1284;22738;-86
2022/06/21 06:48:40;;;;;;;8.30;3.80;;;;;;;14.08;66.04;97491.02;104887;1284;25363;-87
2022/06/21 06:51:32;;;;;;;8.30;3.80;;;;;;;14.09;66.53;97485.59;105386;1284;25345;-88
2022/06/21 06:54:10;;;;;;;4.50;3.30;;;;;;;14.28;66.01;97492.50;105254;1285;24542;-86
2022/06/21 06:56:53;;;;;;;6.40;3.50;;;;;;;14.20;65.81;97502.35;104974;1286;22579;-85
2022/06/21 06:59:24;;;;;;;12.50;5.80;;;;;;;14.07;66.83;97495.90;105210;1285;22688;-85
2022/06/21 07:02:03;;;;;;;12.20;4.20;;;;;;;14.04;68.15;97491.77;105122;1288;24227;-86
2022/06/21 07:04:37;;;;;;;7.10;3.70;;;;;;;14.07;68.98;97491.27;105320;1285;23009;-85
2022/06/21 07:07:17;;;;;;;7.90;3.60;;;;;;;14.04;67.97;97489.61;105428;1284;23142;-86
2022/06/21 07:09:50;;;;;;;9.70;3.50;;;;;;;13.97;67.12;97490.98;105360;1285;22552;-86
2022/06/21 07:12:27;;;;;;;8.00;3.60;;;;;;;14.03;66.54;97495.83;105138;1286;22704;-86
2022/06/21 07:14:57;;;;;;;6.50;3.00;;;;;;;14.22;66.42;97493.20;105432;1287;22783;-86
2022/06/21 07:17:56;;;;;;;9.40;3.40;;;;;;;14.40;64.82;97499.02;105754;1284;25368;-87
2022/06/21 07:20:51;;;;;;;4.90;3.10;;;;;;;14.52;64.47;97498.61;105117;1287;22563;-85
2022/06/21 07:23:22;;;;;;;7.60;3.30;;;;;;;14.56;64.44;97507.13;105684;1284;22578;-87
2022/06/21 07:26:09;;;;;;;6.40;3.10;;;;;;;14.50;63.55;97503.52;105438;1287;24259;-87
2022/06/21 07:28:52;;;;;;;8.00;3.50;;;;;;;14.52;63.80;97509.06;105127;1285;25343;-86
2022/06/21 07:31:28;;;;;;;7.80;3.50;;;;;;;14.45;62.75;97522.61;105405;1285;24226;-89
2022/06/21 07:34:06;;;;;;;8.40;3.40;;;;;;;14.45;63.06;97516.64;105267;1288;22780;-87
2022/06/21 07:36:43;;;;;;;10.00;3.70;;;;;;;14.44;63.08;97513.34;105531;1285;24421;-87
2022/06/21 07:39:27;;;;;;;5.50;2.90;;;;;;;14.41;63.09;97518.05;105215;1285;24223;-88
2022/06/21 07:42:06;;;;;;;7.70;3.00;;;;;;;14.34;63.05;97526.36;105432;1286;25378;-86
2022/06/21 07:44:41;;;;;;;6.40;3.00;;;;;;;14.18;62.05;97527.11;105542;1286;24246;-86
2022/06/21 07:47:21;;;;;;;6.10;2.90;;;;;;;14.01;63.10;97531.54;105570;1286;26564;-85
2022/06/21 07:50:06;;;;;;;5.80;3.10;;;;;;;13.96;63.79;97530.24;105433;1287;22724;-84
2022/06/21 07:52:39;;;;;;;4.70;3.10;;;;;;;13.94;64.26;97536.14;105610;1285;23024;-85
2022/06/21 07:55:19;;;;;;;5.40;3.00;;;;;;;13.97;63.39;97535.24;105203;1287;24244;-86
2022/06/21 07:57:59;;;;;;;8.40;3.30;;;;;;;14.01;63.22;97538.89;105461;1287;22566;-86
2022/06/21 08:06:41;;;;;;;10.80;3.10;;;;;;;14.10;63.27;97528.39;105173;1288;22580;-85
2022/06/21 08:09:35;;;;;;;4.60;2.60;;;;;;;14.46;62.28;97527.04;105237;1287;23354;-87
2022/06/21 08:12:08;;;;;;;6.50;3.00;;;;;;;14.42;62.75;97525.51;105518;1285;25580;-87
2022/06/21 08:14:37;;;;;;;7.90;2.90;;;;;;;14.45;62.89;97520.80;105502;1286;24359;-85
2022/06/21 08:17:20;;;;;;;7.10;2.80;;;;;;;14.57;61.98;97531.23;105393;1286;22829;-86
2022/06/21 08:19:57;;;;;;;4.60;2.70;;;;;;;14.48;62.03;97528.45;105083;1287;22702;-85
2022/06/21 08:22:37;;;;;;;4.80;2.50;;;;;;;14.55;62.18;97523.53;105084;1287;22563;-85
2022/06/21 08:25:20;;;;;;;6.00;2.50;;;;;;;14.62;60.16;97529.09;105183;1287;23237;-86
2022/06/21 08:27:50;;;;;;;5.10;2.20;;;;;;;14.46;59.53;97528.45;105125;1286;22588;-85
2022/06/21 08:30:25;;;;;;;5.30;2.50;;;;;;;14.33;60.39;97534.79;105474;1285;25544;-85
2022/06/21 08:33:04;;;;;;;6.20;2.60;;;;;;;14.21;60.16;97535.91;105132;1288;22694;-85
2022/06/21 08:35:49;;;;;;;5.70;2.40;;;;;;;14.10;60.91;97540.44;105490;1287;22768;-85
2022/06/21 08:38:22;;;;;;;8.40;3.10;;;;;;;14.06;61.03;97545.33;105102;1287;26161;-85
2022/06/21 08:44:43;;;;;;;5.70;2.50;;;;;;;14.17;61.99;97548.83;104467;1294;22567;-85
2022/06/21 08:47:39;;;;;;;2.90;2.40;;;;;;;14.19;61.44;97553.88;104214;1294;22652;-85
2022/06/21 08:50:39;;;;;;;7.20;2.90;;;;;;;14.14;61.83;97558.95;104212;1294;25695;-86
2022/06/21 08:53:25;;;;;;;6.30;3.00;;;;;;;14.15;62.31;97552.63;104179;1298;25717;-85
2022/06/21 08:55:59;;;;;;;8.20;4.20;;;;;;;14.26;62.45;97563.55;104495;1299;22887;-86
2022/06/21 08:58:51;;;;;;;10.00;4.60;;;;;;;14.33;61.59;97554.61;104572;1293;24446;-86
2022/06/21 09:01:35;;;;;;;7.80;3.20;;;;;;;14.41;61.92;97552.55;104595;1294;25611;-87
2022/06/21 09:04:18;;;;;;;7.20;3.40;;;;;;;14.59;62.69;97555.73;104600;1294;22793;-86
2022/06/21 09:06:49;;;;;;;4.60;2.50;;;;;;;14.82;62.55;97556.67;104575;1294;24467;-87
2022/06/21 09:09:39;;;;;;;4.60;2.70;;;;;;;14.75;61.05;97552.43;104601;1294;22753;-87
2022/06/21 09:12:17;;;;;;;4.70;2.40;;;;;;;14.66;60.80;97546.68;104572;1294;22618;-85
2022/06/21 09:15:17;;;;;;;4.30;2.50;;;;;;;14.65;61.06;97539.67;104546;1298;22556;-85
2022/06/21 09:18:14;;;;;;;6.30;2.70;;;;;;;14.72;60.79;97535.18;104541;1290;24494;-86
2022/06/21 09:20:51;;;;;;;4.10;2.50;;;;;;;14.76;60.84;97547.41;105379;1286;24496;-86
2022/06/21 09:23:34;;;;;;;3.90;2.40;;;;;;;14.68;60.69;97538.84;105496;1285;23238;-87
2022/06/21 09:26:11;;;;;;;2.80;2.20;;;;;;;14.55;60.60;97547.83;105483;1285;22548;-88
2022/06/21 09:28:51;;;;;;;5.90;2.80;;;;;;;14.46;60.58;97549.06;105031;1287;25370;-87
2022/06/21 09:31:38;;;;;;;4.50;2.50;;;;;;;14.47;61.18;97548.67;105399;1285;25275;-86
2022/06/21 09:34:21;;;;;;;4.90;2.90;;;;;;;14.51;61.52;97555.89;105433;1288;22883;-84
2022/06/21 09:37:22;;;;;;;7.50;3.30;;;;;;;14.69;61.38;97556.09;105477;1287;22614;-88
2022/06/21 09:40:19;;;;;;;5.50;2.70;;;;;;;14.99;60.65;97560.16;105611;1286;22727;-87
2022/06/21 09:43:22;;;;;;;6.10;2.50;;;;;;;15.32;60.21;97552.94;104938;1287;22569;-89
2022/06/21 09:46:31;;;;;;;3.70;2.50;;;;;;;15.42;59.30;97544.43;105457;1286;23221;-88
2022/06/21 09:49:12;;;;;;;5.30;2.60;;;;;;;15.44;58.87;97542.40;105383;1285;24382;-85
2022/06/21 09:52:12;;;;;;;3.80;2.50;;;;;;;15.31;58.44;97546.86;105481;1285;25321;-83
2022/06/21 09:55:07;;;;;;;5.60;2.70;;;;;;;15.13;58.03;97554.95;105636;1287;22727;-88
2022/06/21 09:58:32;;;;;;;5.10;2.40;;;;;;;14.96;58.12;97547.80;105656;1285;26698;-91
2022/06/21 10:01:19;;;;;;;4.50;3.00;;;;;;;14.90;58.49;97560.16;104608;1294;25424;-87
2022/06/21 10:04:09;;;;;;;4.50;2.30;;;;;;;14.96;58.19;97562.42;104464;1294;22721;-86
2022/06/21 10:06:47;;;;;;;6.20;2.50;;;;;;;14.97;58.27;97556.29;104220;1294;22626;-88
2022/06/21 10:09:36;;;;;;;4.70;2.30;;;;;;;14.94;57.77;97555.63;104391;1294;22616;-84
2022/06/21 10:12:43;;;;;;;3.90;2.20;;;;;;;14.80;57.34;97554.05;104598;1294;25409;-86
2022/06/21 10:15:33;;;;;;;4.30;2.60;;;;;;;14.75;58.00;97555.46;104458;1294;25347;-84
2022/06/21 10:18:17;;;;;;;6.70;3.00;;;;;;;14.81;58.12;97565.62;104395;1294;25781;-86
2022/06/21 10:21:14;;;;;;;5.40;2.90;;;;;;;14.80;58.69;97553.53;104500;1293;24396;-86
2022/06/21 10:23:54;;;;;;;7.10;3.00;;;;;;;14.81;59.38;97556.95;104503;1294;22886;-85
2022/06/21 10:26:49;;;;;;;2.80;2.30;;;;;;;14.78;59.21;97555.86;104293;1293;25676;-85
2022/06/21 10:29:35;;;;;;;;;;;;;;;14.76;59.10;97551.74;104467;1297;22899;-88
2022/06/21 10:32:39;;;;;;;6.30;3.00;;;;;;;14.89;58.89;97553.66;104478;1297;22608;-86
2022/06/21 10:35:19;;;;;;;5.50;2.50;;;;;;;15.11;57.89;97565.60;104469;1294;22695;-85
2022/06/21 10:38:04;;;;;;;8.70;2.70;;;;;;;15.16;57.46;97559.41;105236;1285;22678;-86
2022/06/21 10:40:54;;;;;;;5.70;2.70;;;;;;;15.21;57.79;97556.61;105521;1285;22733;-86
2022/06/21 10:44:00;;;;;;;10.40;3.90;;;;;;;15.22;58.29;97556.33;105496;1285;24189;-85
2022/06/21 10:46:32;;;;;;;8.70;3.40;;;;;;;15.26;58.46;97553.92;105405;1285;22570;-88
2022/06/21 10:49:25;;;;;;;5.20;3.00;;;;;;;15.25;58.44;97560.45;105423;1285;22593;-85
2022/06/21 10:52:12;;;;;;;6.60;3.00;;;;;;;15.20;58.34;97561.02;105397;1285;23940;-85
2022/06/21 10:55:11;;;;;;;5.80;3.10;;;;;;;15.10;58.35;97564.17;105260;1287;22739;-87
2022/06/21 10:57:41;;;;;;;4.90;3.00;;;;;;;15.08;58.74;97562.38;105403;1285;25482;-84
2022/06/21 11:03:50;;;;;;;10.90;5.00;;;;;;;15.31;58.57;97562.98;105381;1285;24205;-83
2022/06/21 11:06:37;;;;;;;8.80;3.10;;;;;;;15.38;58.58;97560.52;105180;1286;25426;-83
2022/06/21 11:09:38;;;;;;;11.30;4.00;;;;;;;15.48;58.16;97563.06;105474;1285;24250;-83
2022/06/21 11:15:13;;;;;;;5.60;3.40;;;;;;;15.37;58.03;97563.58;105460;1285;24776;-83
2022/06/21 11:17:47;;;;;;;5.70;2.80;;;;;;;15.37;57.86;97562.48;105429;1285;22585;-85
2022/06/21 11:20:43;;;;;;;9.60;3.50;;;;;;;15.46;57.89;97557.27;105064;1287;25479;-87
2022/06/21 11:23:20;;;;;;;8.10;3.20;;;;;;;15.76;57.63;97554.43;105010;1288;24281;-81
2022/06/21 11:26:05;;;;;;;6.60;2.50;;;;;;;16.17;57.51;97548.77;105518;1287;23972;-82
2022/06/21 11:29:17;;;;;;;4.20;2.60;;;;;;;16.34;57.02;97544.99;105210;1287;22705;-83
2022/06/21 11:32:03;;;;;;;3.80;2.50;;;;;;;16.25;55.49;97551.48;105070;1288;22624;-83
2022/06/21 11:34:37;;;;;;;7.50;2.40;;;;;;;16.02;54.30;97547.41;105194;1288;23267;-83
2022/06/21 11:37:33;;;;;;;6.30;2.90;;;;;;;15.93;54.95;97555.27;105216;1288;22770;-84
2022/06/21 11:40:19;;;;;;;8.60;3.50;;;;;;;15.81;55.68;97565.09;105879;1287;23926;-83
2022/06/21 11:42:52;;;;;;;5.20;3.00;;;;;;;15.68;56.47;97565.37;106456;1287;22639;-82
2022/06/21 11:45:39;;;;;;;8.00;3.80;;;;;;;15.53;57.25;97575.95;105133;1287;27924;-86
2022/06/21 11:48:33;;;;;;;8.60;3.70;;;;;;;15.42;57.70;97577.55;105439;1287;24376;-83
2022/06/21 11:51:10;;;;;;;8.30;3.70;;;;;;;15.42;58.08;97571.58;105468;1287;25276;-82
2022/06/21 11:53:59;;;;;;;8.70;4.00;;;;;;;15.49;58.08;97570.77;105341;1287;22645;-83
2022/06/21 11:57:03;;;;;;;6.80;3.10;;;;;;;15.50;58.16;97582.71;105319;1287;24861;-84
2022/06/21 11:59:42;;;;;;;6.50;3.40;;;;;;;15.50;58.01;97579.52;105520;1287;24298;-83
2022/06/21 12:02:25;;;;;;;6.70;3.40;;;;;;;15.43;58.28;97587.29;105198;1287;22569;-84
2022/06/21 12:05:03;;;;;;;5.80;2.90;;;;;;;15.36;57.99;97583.57;105444;1287;23927;-83
2022/06/21 12:07:51;;;;;;;6.30;2.80;;;;;;;15.23;57.54;97588.26;105216;1288;23996;-84
2022/06/21 12:10:29;;;;;;;4.70;2.70;;;;;;;15.15;57.93;97584.96;105481;1287;22607;-84
2022/06/21 12:13:13;;;;;;;7.00;2.70;;;;;;;15.01;58.28;97565.41;105454;1287;22600;-85
2022/06/21 12:15:57;;;;;;;7.20;3.00;;;;;;;15.14;58.42;97586.02;105511;1287;23491;-83
2022/06/21 12:18:29;;;;;;;9.80;3.70;;;;;;;15.21;58.88;97580.67;105444;1285;26621;-83
2022/06/21 12:21:11;;;;;;;5.40;3.10;;;;;;;15.37;59.05;97582.59;105264;1285;22604;-83
2022/06/21 12:23:49;;;;;;;8.50;3.70;;;;;;;15.47;58.80;97581.59;105099;1288;23014;-82
2022/06/21 12:26:21;;;;;;;10.30;3.10;;;;;;;15.52;59.01;97582.20;105593;1285;23941;-83
2022/06/21 12:28:52;;;;;;;8.60;3.10;;;;;;;15.57;58.91;97577.79;105550;1285;22580;-84
2022/06/21 12:31:29;;;;;;;6.20;3.00;;;;;;;15.65;59.12;97576.52;105365;1286;23540;-83
2022/06/21 12:34:02;;;;;;;7.80;2.90;;;;;;;15.77;59.17;97578.08;105585;1285;23316;-84
2022/06/21 12:36:55;;;;;;;4.50;2.80;;;;;;;15.98;59.28;97570.34;105568;1285;25483;-82
2022/06/21 12:39:46;;;;;;;11.60;3.10;;;;;;;16.26;58.36;97568.92;105530;1285;22589;-84
2022/06/21 12:42:40;;;;;;;5.70;2.50;;;;;;;16.71;57.40;97566.70;105530;1285;22572;-84
2022/06/21 12:45:44;;;;;;;5.50;2.80;;;;;;;16.87;55.02;97568.33;105495;1285;22619;-84